sensor_id;sensor_type;location;lat;lon;timestamp;pressure;altitude;pressure_sealevel;temperature
49785;BMP280;35679;38.732;-121.358;2022-08-02T00:02:04;101085.31;;;26.45
49785;BMP280;35679;38.732;-121.358;2022-08-02T00:04:54;101091.28;;;26.47
49785;BMP280;35679;38.732;-121.358;2022-08-02T00:07:43;101089.09;;;26.44
49785;BMP280;35679;38.732;-121.358;2022-08-02T00:10:33;101080.47;;;26.47
49785;BMP280;35679;38.732;-121.358;2022-08-02T00:13:22;101079.38;;;26.48
49785;BMP280;35679;38.732;-121.358;2022-08-02T00:16:12;101082.91;;;26.48
49785;BMP280;35679;38.732;-121.358;2022-08-02T00:19:03;101072.88;;;26.48
49785;BMP280;35679;38.732;-121.358;2022-08-02T00:21:53;101069.41;;;26.53
49785;BMP280;35679;38.732;-121.358;2022-08-02T00:24:42;101072.63;;;26.55
49785;BMP280;35679;38.732;-121.358;2022-08-02T00:27:32;101068.63;;;26.57
49785;BMP280;35679;38.732;-121.358;2022-08-02T00:30:21;101070.75;;;26.55
49785;BMP280;35679;38.732;-121.358;2022-08-02T00:33:14;101075.31;;;26.50
49785;BMP280;35679;38.732;-121.358;2022-08-02T00:36:28;101079.69;;;26.56
49785;BMP280;35679;38.732;-121.358;2022-08-02T00:39:18;101078.31;;;26.53
49785;BMP280;35679;38.732;-121.358;2022-08-02T00:42:22;101069.72;;;26.61
49785;BMP280;35679;38.732;-121.358;2022-08-02T00:45:13;101061.88;;;26.60
49785;BMP280;35679;38.732;-121.358;2022-08-02T00:48:06;101060.56;;;26.67
49785;BMP280;35679;38.732;-121.358;2022-08-02T00:50:55;101060.78;;;26.66
49785;BMP280;35679;38.732;-121.358;2022-08-02T00:53:45;101055.13;;;26.67
49785;BMP280;35679;38.732;-121.358;2022-08-02T00:56:34;101051.88;;;26.70
49785;BMP280;35679;38.732;-121.358;2022-08-02T00:59:24;101062.41;;;26.67
49785;BMP280;35679;38.732;-121.358;2022-08-02T01:02:13;101061.06;;;26.64
49785;BMP280;35679;38.732;-121.358;2022-08-02T01:05:05;101047.81;;;26.68
49785;BMP280;35679;38.732;-121.358;2022-08-02T01:07:54;101041.84;;;26.66
49785;BMP280;35679;38.732;-121.358;2022-08-02T01:10:44;101044.84;;;26.69
49785;BMP280;35679;38.732;-121.358;2022-08-02T01:13:34;101040.78;;;26.72
49785;BMP280;35679;38.732;-121.358;2022-08-02T01:16:27;101042.13;;;26.69
49785;BMP280;35679;38.732;-121.358;2022-08-02T01:19:42;101036.72;;;26.69
49785;BMP280;35679;38.732;-121.358;2022-08-02T01:22:45;101045.38;;;26.66
49785;BMP280;35679;38.732;-121.358;2022-08-02T01:34:57;101023.69;;;26.56
49785;BMP280;35679;38.732;-121.358;2022-08-02T01:38:08;101020.13;;;26.56
49785;BMP280;35679;38.732;-121.358;2022-08-02T01:41:01;101022.59;;;26.57
49785;BMP280;35679;38.732;-121.358;2022-08-02T01:43:58;101029.88;;;26.57
49785;BMP280;35679;38.732;-121.358;2022-08-02T01:46:48;101022.03;;;26.55
49785;BMP280;35679;38.732;-121.358;2022-08-02T01:49:41;101019.34;;;26.55
49785;BMP280;35679;38.732;-121.358;2022-08-02T01:52:34;101011.22;;;26.55
49785;BMP280;35679;38.732;-121.358;2022-08-02T01:55:38;101012.28;;;26.54
49785;BMP280;35679;38.732;-121.358;2022-08-02T01:58:46;101020.16;;;26.61
49785;BMP280;35679;38.732;-121.358;2022-08-02T02:01:38;101012.88;;;26.61
49785;BMP280;35679;38.732;-121.358;2022-08-02T02:04:31;101002.88;;;26.67
49785;BMP280;35679;38.732;-121.358;2022-08-02T02:07:21;101007.50;;;26.71
49785;BMP280;35679;38.732;-121.358;2022-08-02T02:10:15;101011.84;;;26.72
49785;BMP280;35679;38.732;-121.358;2022-08-02T02:13:11;101009.94;;;26.73
49785;BMP280;35679;38.732;-121.358;2022-08-02T02:16:04;101009.38;;;26.76
49785;BMP280;35679;38.732;-121.358;2022-08-02T02:18:54;101001.53;;;26.74
49785;BMP280;35679;38.732;-121.358;2022-08-02T02:21:43;101005.34;;;26.78
49785;BMP280;35679;38.732;-121.358;2022-08-02T02:24:33;101009.69;;;26.79
49785;BMP280;35679;38.732;-121.358;2022-08-02T02:27:24;101007.53;;;26.81
49785;BMP280;35679;38.732;-121.358;2022-08-02T02:30:13;101007.53;;;26.81
49785;BMP280;35679;38.732;-121.358;2022-08-02T02:33:06;101000.75;;;26.79
49785;BMP280;35679;38.732;-121.358;2022-08-02T02:35:57;101002.13;;;26.81
49785;BMP280;35679;38.732;-121.358;2022-08-02T02:38:49;101001.31;;;26.81
49785;BMP280;35679;38.732;-121.358;2022-08-02T02:41:39;100991.56;;;26.80
49785;BMP280;35679;38.732;-121.358;2022-08-02T02:44:33;101000.47;;;26.80
49785;BMP280;35679;38.732;-121.358;2022-08-02T02:47:24;100998.34;;;26.82
49785;BMP280;35679;38.732;-121.358;2022-08-02T02:50:29;101002.13;;;26.81
49785;BMP280;35679;38.732;-121.358;2022-08-02T02:53:19;100992.38;;;26.85
49785;BMP280;35679;38.732;-121.358;2022-08-02T02:56:11;101002.13;;;26.86
49785;BMP280;35679;38.732;-121.358;2022-08-02T02:59:02;100992.38;;;26.85
49785;BMP280;35679;38.732;-121.358;2022-08-02T03:01:52;100989.38;;;26.87
49785;BMP280;35679;38.732;-121.358;2022-08-02T03:04:46;100995.06;;;26.85
49785;BMP280;35679;38.732;-121.358;2022-08-02T03:07:44;100999.41;;;26.86
49785;BMP280;35679;38.732;-121.358;2022-08-02T03:10:34;100997.78;;;26.85
49785;BMP280;35679;38.732;-121.358;2022-08-02T03:13:24;101001.56;;;26.84
49785;BMP280;35679;38.732;-121.358;2022-08-02T03:16:24;101002.41;;;26.85
49785;BMP280;35679;38.732;-121.358;2022-08-02T03:19:17;100995.63;;;26.82
49785;BMP280;35679;38.732;-121.358;2022-08-02T03:22:07;100994.28;;;26.85
49785;BMP280;35679;38.732;-121.358;2022-08-02T03:24:57;100996.97;;;26.85
49785;BMP280;35679;38.732;-121.358;2022-08-02T03:27:46;100991.56;;;26.85
49785;BMP280;35679;38.732;-121.358;2022-08-02T03:30:36;100999.13;;;26.83
49785;BMP280;35679;38.732;-121.358;2022-08-02T03:33:25;100990.47;;;26.81
49785;BMP280;35679;38.732;-121.358;2022-08-02T03:36:16;100992.91;;;26.82
49785;BMP280;35679;38.732;-121.358;2022-08-02T03:39:07;100989.94;;;26.84
49785;BMP280;35679;38.732;-121.358;2022-08-02T03:41:57;100990.72;;;26.84
49785;BMP280;35679;38.732;-121.358;2022-08-02T03:44:49;100994.78;;;26.82
49785;BMP280;35679;38.732;-121.358;2022-08-02T03:47:40;100998.84;;;26.79
49785;BMP280;35679;38.732;-121.358;2022-08-02T03:50:32;101002.38;;;26.80
49785;BMP280;35679;38.732;-121.358;2022-08-02T03:53:21;101008.59;;;26.80
49785;BMP280;35679;38.732;-121.358;2022-08-02T03:56:11;101006.16;;;26.79
49785;BMP280;35679;38.732;-121.358;2022-08-02T03:59:11;101009.16;;;26.77
49785;BMP280;35679;38.732;-121.358;2022-08-02T04:02:01;101016.16;;;26.78
49785;BMP280;35679;38.732;-121.358;2022-08-02T04:04:50;101018.06;;;26.78
49785;BMP280;35679;38.732;-121.358;2022-08-02T04:07:40;101017.78;;;26.74
49785;BMP280;35679;38.732;-121.358;2022-08-02T04:10:51;101015.63;;;26.76
49785;BMP280;35679;38.732;-121.358;2022-08-02T04:14:02;101017.28;;;26.77
49785;BMP280;35679;38.732;-121.358;2022-08-02T04:17:00;101011.84;;;26.77
49785;BMP280;35679;38.732;-121.358;2022-08-02T04:20:04;101016.16;;;26.73
49785;BMP280;35679;38.732;-121.358;2022-08-02T04:23:06;101012.63;;;26.73
49785;BMP280;35679;38.732;-121.358;2022-08-02T04:25:57;101008.28;;;26.72
49785;BMP280;35679;38.732;-121.358;2022-08-02T04:28:47;101005.59;;;26.72
49785;BMP280;35679;38.732;-121.358;2022-08-02T04:31:37;101014.28;;;26.74
49785;BMP280;35679;38.732;-121.358;2022-08-02T04:34:29;101015.63;;;26.71
49785;BMP280;35679;38.732;-121.358;2022-08-02T04:37:18;101020.75;;;26.68
49785;BMP280;35679;38.732;-121.358;2022-08-02T04:40:12;101035.06;;;26.68
49785;BMP280;35679;38.732;-121.358;2022-08-02T04:43:03;101033.47;;;26.67
49785;BMP280;35679;38.732;-121.358;2022-08-02T04:45:54;101035.63;;;26.65
49785;BMP280;35679;38.732;-121.358;2022-08-02T04:48:43;101034.81;;;26.65
49785;BMP280;35679;38.732;-121.358;2022-08-02T04:51:41;101041.03;;;26.65
49785;BMP280;35679;38.732;-121.358;2022-08-02T04:54:31;101038.06;;;26.67
49785;BMP280;35679;38.732;-121.358;2022-08-02T04:57:20;101035.88;;;26.64
49785;BMP280;35679;38.732;-121.358;2022-08-02T05:00:40;101043.19;;;26.63
49785;BMP280;35679;38.732;-121.358;2022-08-02T05:03:29;101026.94;;;26.63
49785;BMP280;35679;38.732;-121.358;2022-08-02T05:06:19;101036.66;;;26.59
49785;BMP280;35679;38.732;-121.358;2022-08-02T05:09:08;101042.91;;;26.60
49785;BMP280;35679;38.732;-121.358;2022-08-02T05:11:58;101039.38;;;26.59
49785;BMP280;35679;38.732;-121.358;2022-08-02T05:14:49;101035.59;;;26.60
49785;BMP280;35679;38.732;-121.358;2022-08-02T05:17:39;101031.25;;;26.59
49785;BMP280;35679;38.732;-121.358;2022-08-02T05:20:35;101028.56;;;26.59
49785;BMP280;35679;38.732;-121.358;2022-08-02T05:23:24;101025.84;;;26.59
49785;BMP280;35679;38.732;-121.358;2022-08-02T05:26:13;101018.78;;;26.58
49785;BMP280;35679;38.732;-121.358;2022-08-02T05:29:03;101021.78;;;26.57
49785;BMP280;35679;38.732;-121.358;2022-08-02T05:31:52;101032.88;;;26.55
49785;BMP280;35679;38.732;-121.358;2022-08-02T05:34:42;101033.94;;;26.54
49785;BMP280;35679;38.732;-121.358;2022-08-02T05:37:32;101043.41;;;26.52
49785;BMP280;35679;38.732;-121.358;2022-08-02T05:40:22;101039.34;;;26.54
49785;BMP280;35679;38.732;-121.358;2022-08-02T05:43:13;101034.47;;;26.51
49785;BMP280;35679;38.732;-121.358;2022-08-02T05:46:07;101031.78;;;26.51
49785;BMP280;35679;38.732;-121.358;2022-08-02T05:48:57;101024.72;;;26.50
49785;BMP280;35679;38.732;-121.358;2022-08-02T05:51:59;101032.84;;;26.50
49785;BMP280;35679;38.732;-121.358;2022-08-02T05:55:07;101027.13;;;26.47
49785;BMP280;35679;38.732;-121.358;2022-08-02T05:58:35;101029.56;;;26.48
49785;BMP280;35679;38.732;-121.358;2022-08-02T06:01:33;101024.44;;;26.47
49785;BMP280;35679;38.732;-121.358;2022-08-02T06:04:35;101024.69;;;26.46
49785;BMP280;35679;38.732;-121.358;2022-08-02T06:07:30;101032.00;;;26.45
49785;BMP280;35679;38.732;-121.358;2022-08-02T06:10:22;101030.13;;;26.46
49785;BMP280;35679;38.732;-121.358;2022-08-02T06:13:13;101033.09;;;26.44
49785;BMP280;35679;38.732;-121.358;2022-08-02T06:16:06;101019.78;;;26.43
49785;BMP280;35679;38.732;-121.358;2022-08-02T06:19:02;101019.78;;;26.43
49785;BMP280;35679;38.732;-121.358;2022-08-02T06:21:53;101027.38;;;26.41
49785;BMP280;35679;38.732;-121.358;2022-08-02T06:25:04;101031.16;;;26.40
49785;BMP280;35679;38.732;-121.358;2022-08-02T06:28:15;101029.03;;;26.42
49785;BMP280;35679;38.732;-121.358;2022-08-02T06:31:08;101029.25;;;26.40
49785;BMP280;35679;38.732;-121.358;2022-08-02T06:33:57;101020.34;;;26.40
49785;BMP280;35679;38.732;-121.358;2022-08-02T06:36:59;101020.34;;;26.40
49785;BMP280;35679;38.732;-121.358;2022-08-02T06:39:58;101009.78;;;26.38
49785;BMP280;35679;38.732;-121.358;2022-08-02T06:43:19;101017.06;;;26.38
49785;BMP280;35679;38.732;-121.358;2022-08-02T06:46:10;101011.34;;;26.34
49785;BMP280;35679;38.732;-121.358;2022-08-02T06:49:19;101017.84;;;26.33
49785;BMP280;35679;38.732;-121.358;2022-08-02T06:52:08;101015.69;;;26.35
49785;BMP280;35679;38.732;-121.358;2022-08-02T06:55:00;101020.28;;;26.35
49785;BMP280;35679;38.732;-121.358;2022-08-02T06:57:50;101025.13;;;26.33
49785;BMP280;35679;38.732;-121.358;2022-08-02T07:00:41;101025.97;;;26.33
49785;BMP280;35679;38.732;-121.358;2022-08-02T07:03:34;101024.31;;;26.32
49785;BMP280;35679;38.732;-121.358;2022-08-02T07:06:26;101024.31;;;26.32
49785;BMP280;35679;38.732;-121.358;2022-08-02T07:09:15;101022.97;;;26.30
49785;BMP280;35679;38.732;-121.358;2022-08-02T07:12:08;101021.31;;;26.29
49785;BMP280;35679;38.732;-121.358;2022-08-02T07:14:59;101013.22;;;26.29
49785;BMP280;35679;38.732;-121.358;2022-08-02T07:17:49;101019.16;;;26.26
49785;BMP280;35679;38.732;-121.358;2022-08-02T07:20:39;101027.81;;;26.28
49785;BMP280;35679;38.732;-121.358;2022-08-02T07:23:29;101022.41;;;26.28
49785;BMP280;35679;38.732;-121.358;2022-08-02T07:26:18;101024.56;;;26.26
49785;BMP280;35679;38.732;-121.358;2022-08-02T07:29:07;101028.59;;;26.23
49785;BMP280;35679;38.732;-121.358;2022-08-02T07:31:57;101028.84;;;26.22
49785;BMP280;35679;38.732;-121.358;2022-08-02T07:34:46;101028.59;;;26.23
49785;BMP280;35679;38.732;-121.358;2022-08-02T07:37:39;101027.78;;;26.23
49785;BMP280;35679;38.732;-121.358;2022-08-02T07:40:44;101031.31;;;26.23
49785;BMP280;35679;38.732;-121.358;2022-08-02T07:43:34;101037.78;;;26.22
49785;BMP280;35679;38.732;-121.358;2022-08-02T07:46:23;101036.44;;;26.20
49785;BMP280;35679;38.732;-121.358;2022-08-02T07:49:15;101035.34;;;26.21
49785;BMP280;35679;38.732;-121.358;2022-08-02T07:52:06;101027.47;;;26.19
49785;BMP280;35679;38.732;-121.358;2022-08-02T07:54:56;101034.00;;;26.18
49785;BMP280;35679;38.732;-121.358;2022-08-02T07:57:45;101028.56;;;26.18
49785;BMP280;35679;38.732;-121.358;2022-08-02T08:00:35;101025.88;;;26.18
49785;BMP280;35679;38.732;-121.358;2022-08-02T08:03:24;101029.38;;;26.19
49785;BMP280;35679;38.732;-121.358;2022-08-02T08:06:13;101015.28;;;26.17
49785;BMP280;35679;38.732;-121.358;2022-08-02T08:09:03;101020.69;;;26.17
49785;BMP280;35679;38.732;-121.358;2022-08-02T08:11:53;101018.25;;;26.15
49785;BMP280;35679;38.732;-121.358;2022-08-02T08:14:42;101014.75;;;26.15
49785;BMP280;35679;38.732;-121.358;2022-08-02T08:17:32;101020.16;;;26.15
49785;BMP280;35679;38.732;-121.358;2022-08-02T08:20:23;101012.59;;;26.17
49785;BMP280;35679;38.732;-121.358;2022-08-02T08:23:12;101015.25;;;26.12
49785;BMP280;35679;38.732;-121.358;2022-08-02T08:26:02;101021.25;;;26.14
49785;BMP280;35679;38.732;-121.358;2022-08-02T08:28:52;101016.09;;;26.12
49785;BMP280;35679;38.732;-121.358;2022-08-02T08:31:41;101007.16;;;26.12
49785;BMP280;35679;38.732;-121.358;2022-08-02T08:34:31;101004.44;;;26.12
49785;BMP280;35679;38.732;-121.358;2022-08-02T08:37:20;101005.78;;;26.09
49785;BMP280;35679;38.732;-121.358;2022-08-02T08:40:10;101001.97;;;26.05
49785;BMP280;35679;38.732;-121.358;2022-08-02T08:43:06;101004.41;;;26.07
49785;BMP280;35679;38.732;-121.358;2022-08-02T08:45:56;101014.44;;;26.06
49785;BMP280;35679;38.732;-121.358;2022-08-02T08:48:47;101019.00;;;26.06
49785;BMP280;35679;38.732;-121.358;2022-08-02T08:51:41;101015.75;;;26.04
49785;BMP280;35679;38.732;-121.358;2022-08-02T08:54:32;101015.75;;;26.04
49785;BMP280;35679;38.732;-121.358;2022-08-02T08:57:26;101014.69;;;26.05
49785;BMP280;35679;38.732;-121.358;2022-08-02T09:00:17;101008.72;;;26.03
49785;BMP280;35679;38.732;-121.358;2022-08-02T09:03:07;101004.38;;;26.02
49785;BMP280;35679;38.732;-121.358;2022-08-02T09:05:58;101007.91;;;26.02
49785;BMP280;35679;38.732;-121.358;2022-08-02T09:08:51;101012.50;;;26.02
49785;BMP280;35679;38.732;-121.358;2022-08-02T09:11:41;101015.75;;;26.04
49785;BMP280;35679;38.732;-121.358;2022-08-02T09:14:31;101010.59;;;25.97
49785;BMP280;35679;38.732;-121.358;2022-08-02T09:17:21;101014.34;;;25.96
49785;BMP280;35679;38.732;-121.358;2022-08-02T09:20:11;101014.63;;;25.95
49785;BMP280;35679;38.732;-121.358;2022-08-02T09:23:08;101013.78;;;25.94
49785;BMP280;35679;38.732;-121.358;2022-08-02T09:26:00;101005.69;;;25.94
49785;BMP280;35679;38.732;-121.358;2022-08-02T09:29:00;101003.81;;;25.95
49785;BMP280;35679;38.732;-121.358;2022-08-02T09:31:50;101011.34;;;25.93
49785;BMP280;35679;38.732;-121.358;2022-08-02T09:34:49;101005.69;;;25.94
49785;BMP280;35679;38.732;-121.358;2022-08-02T09:37:40;101000.53;;;25.93
49785;BMP280;35679;38.732;-121.358;2022-08-02T09:40:36;100992.44;;;25.93
49785;BMP280;35679;38.732;-121.358;2022-08-02T09:43:38;100992.13;;;25.89
49785;BMP280;35679;38.732;-121.358;2022-08-02T09:46:48;100998.88;;;25.87
49785;BMP280;35679;38.732;-121.358;2022-08-02T09:49:45;101000.78;;;25.86
49785;BMP280;35679;38.732;-121.358;2022-08-02T09:52:42;101009.69;;;25.87
49785;BMP280;35679;38.732;-121.358;2022-08-02T09:55:31;101011.31;;;25.88
49785;BMP280;35679;38.732;-121.358;2022-08-02T09:58:21;101008.88;;;25.86
49785;BMP280;35679;38.732;-121.358;2022-08-02T10:01:11;101002.66;;;25.86
49785;BMP280;35679;38.732;-121.358;2022-08-02T10:04:05;100995.59;;;25.85
49785;BMP280;35679;38.732;-121.358;2022-08-02T10:06:55;100997.75;;;25.83
49785;BMP280;35679;38.732;-121.358;2022-08-02T10:09:47;101004.53;;;25.85
49785;BMP280;35679;38.732;-121.358;2022-08-02T10:12:39;101006.72;;;25.88
49785;BMP280;35679;38.732;-121.358;2022-08-02T10:15:28;101004.53;;;25.85
49785;BMP280;35679;38.732;-121.358;2022-08-02T10:18:17;101009.69;;;25.87
49785;BMP280;35679;38.732;-121.358;2022-08-02T10:21:28;101009.66;;;25.82
49785;BMP280;35679;38.732;-121.358;2022-08-02T10:24:27;101010.72;;;25.81
49785;BMP280;35679;38.732;-121.358;2022-08-02T10:27:18;101013.94;;;25.78
49785;BMP280;35679;38.732;-121.358;2022-08-02T10:30:13;101015.31;;;25.81
49785;BMP280;35679;38.732;-121.358;2022-08-02T10:33:03;101014.50;;;25.80
49785;BMP280;35679;38.732;-121.358;2022-08-02T10:35:54;101004.78;;;25.79
49785;BMP280;35679;38.732;-121.358;2022-08-02T10:38:55;101012.88;;;25.79
49785;BMP280;35679;38.732;-121.358;2022-08-02T10:41:48;101003.13;;;25.78
49785;BMP280;35679;38.732;-121.358;2022-08-02T10:44:38;100998.25;;;25.80
49785;BMP280;35679;38.732;-121.358;2022-08-02T10:47:29;101005.00;;;25.78
49785;BMP280;35679;38.732;-121.358;2022-08-02T10:50:18;101010.13;;;25.74
49785;BMP280;35679;38.732;-121.358;2022-08-02T10:53:27;101007.44;;;25.74
49785;BMP280;35679;38.732;-121.358;2022-08-02T10:56:56;101007.44;;;25.74
49785;BMP280;35679;38.732;-121.358;2022-08-02T10:59:51;101016.34;;;25.75
49785;BMP280;35679;38.732;-121.358;2022-08-02T11:02:44;101023.09;;;25.72
49785;BMP280;35679;38.732;-121.358;2022-08-02T11:05:40;101020.38;;;25.72
49785;BMP280;35679;38.732;-121.358;2022-08-02T11:08:31;101017.34;;;25.69
49785;BMP280;35679;38.732;-121.358;2022-08-02T11:11:20;101015.22;;;25.71
49785;BMP280;35679;38.732;-121.358;2022-08-02T11:14:31;101017.13;;;25.44
49785;BMP280;35679;38.732;-121.358;2022-08-02T11:17:21;101025.78;;;24.34
49785;BMP280;35679;38.732;-121.358;2022-08-02T11:23:34;101024.50;;;22.71
49785;BMP280;35679;38.732;-121.358;2022-08-02T11:29:44;101038.09;;;23.32
49785;BMP280;35679;38.732;-121.358;2022-08-02T11:32:33;101038.00;;;22.37
49785;BMP280;35679;38.732;-121.358;2022-08-02T11:35:34;101038.22;;;22.47
49785;BMP280;35679;38.732;-121.358;2022-08-02T11:38:24;101039.41;;;22.40
49785;BMP280;35679;38.732;-121.358;2022-08-02T11:41:21;101041.47;;;22.26
49785;BMP280;35679;38.732;-121.358;2022-08-02T11:44:40;101051.19;;;21.93
49785;BMP280;35679;38.732;-121.358;2022-08-02T11:47:29;101050.25;;;21.99
49785;BMP280;35679;38.732;-121.358;2022-08-02T11:50:21;101057.72;;;21.97
49785;BMP280;35679;38.732;-121.358;2022-08-02T11:53:17;101052.69;;;22.12
49785;BMP280;35679;38.732;-121.358;2022-08-02T11:56:06;101065.28;;;21.88
49785;BMP280;35679;38.732;-121.358;2022-08-02T11:59:02;101065.69;;;22.15
49785;BMP280;35679;38.732;-121.358;2022-08-02T12:01:52;101068.03;;;22.45
49785;BMP280;35679;38.732;-121.358;2022-08-02T12:04:52;101063.13;;;22.31
49785;BMP280;35679;38.732;-121.358;2022-08-02T12:07:46;101068.06;;;22.34
49785;BMP280;35679;38.732;-121.358;2022-08-02T12:10:35;101064.09;;;22.37
49785;BMP280;35679;38.732;-121.358;2022-08-02T12:13:24;101063.22;;;22.25
49785;BMP280;35679;38.732;-121.358;2022-08-02T12:16:14;101057.84;;;22.25
49785;BMP280;35679;38.732;-121.358;2022-08-02T12:19:23;101066.06;;;22.30
49785;BMP280;35679;38.732;-121.358;2022-08-02T12:22:20;101068.19;;;21.64
49785;BMP280;35679;38.732;-121.358;2022-08-02T12:25:19;101077.09;;;21.47
49785;BMP280;35679;38.732;-121.358;2022-08-02T12:28:42;101085.97;;;21.47
49785;BMP280;35679;38.732;-121.358;2022-08-02T12:31:46;101088.81;;;21.52
49785;BMP280;35679;38.732;-121.358;2022-08-02T12:35:06;101085.13;;;21.47
49785;BMP280;35679;38.732;-121.358;2022-08-02T12:37:56;101094.06;;;21.88
49785;BMP280;35679;38.732;-121.358;2022-08-02T12:40:49;101096.97;;;21.75
49785;BMP280;35679;38.732;-121.358;2022-08-02T12:43:41;101100.06;;;21.61
49785;BMP280;35679;38.732;-121.358;2022-08-02T12:46:31;101095.00;;;21.53
49785;BMP280;35679;38.732;-121.358;2022-08-02T12:49:29;101096.47;;;21.49
49785;BMP280;35679;38.732;-121.358;2022-08-02T12:52:23;101094.34;;;21.69
49785;BMP280;35679;38.732;-121.358;2022-08-02T12:55:24;101105.50;;;21.25
49785;BMP280;35679;38.732;-121.358;2022-08-02T12:58:48;101100.22;;;21.77
49785;BMP280;35679;38.732;-121.358;2022-08-02T13:01:38;101106.88;;;21.75
49785;BMP280;35679;38.732;-121.358;2022-08-02T13:04:27;101106.06;;;21.74
49785;BMP280;35679;38.732;-121.358;2022-08-02T13:07:17;101112.09;;;21.58
49785;BMP280;35679;38.732;-121.358;2022-08-02T13:10:07;101107.09;;;21.73
49785;BMP280;35679;38.732;-121.358;2022-08-02T13:12:57;101113.84;;;21.64
49785;BMP280;35679;38.732;-121.358;2022-08-02T13:15:48;101115.75;;;21.75
49785;BMP280;35679;38.732;-121.358;2022-08-02T13:18:38;101127.28;;;21.64
49785;BMP280;35679;38.732;-121.358;2022-08-02T13:21:27;101122.53;;;21.48
49785;BMP280;35679;38.732;-121.358;2022-08-02T13:24:37;101129.69;;;21.36
49785;BMP280;35679;38.732;-121.358;2022-08-02T13:27:43;101124.00;;;21.62
49785;BMP280;35679;38.732;-121.358;2022-08-02T13:30:33;101127.50;;;21.63
49785;BMP280;35679;38.732;-121.358;2022-08-02T13:33:22;101132.19;;;21.67
49785;BMP280;35679;38.732;-121.358;2022-08-02T13:36:11;101135.88;;;21.37
49785;BMP280;35679;38.732;-121.358;2022-08-02T13:39:02;101135.81;;;21.43
49785;BMP280;35679;38.732;-121.358;2022-08-02T13:41:53;101134.91;;;21.49
49785;BMP280;35679;38.732;-121.358;2022-08-02T13:44:43;101131.16;;;21.50
49785;BMP280;35679;38.732;-121.358;2022-08-02T13:47:33;101132.78;;;21.51
49785;BMP280;35679;38.732;-121.358;2022-08-02T13:50:42;101147.81;;;21.41
49785;BMP280;35679;38.732;-121.358;2022-08-02T13:53:32;101139.16;;;21.39
49785;BMP280;35679;38.732;-121.358;2022-08-02T13:56:22;101144.75;;;21.55
49785;BMP280;35679;38.732;-121.358;2022-08-02T13:59:23;101147.34;;;21.44
49785;BMP280;35679;38.732;-121.358;2022-08-02T14:02:32;101145.81;;;21.36
49785;BMP280;35679;38.732;-121.358;2022-08-02T14:05:27;101150.72;;;21.39
49785;BMP280;35679;38.732;-121.358;2022-08-02T14:08:34;101149.53;;;21.53
49785;BMP280;35679;38.732;-121.358;2022-08-02T14:11:24;101142.19;;;21.60
49785;BMP280;35679;38.732;-121.358;2022-08-02T14:14:13;101148.81;;;21.76
49785;BMP280;35679;38.732;-121.358;2022-08-02T14:17:04;101155.31;;;21.68
49785;BMP280;35679;38.732;-121.358;2022-08-02T14:19:54;101158.28;;;21.78
49785;BMP280;35679;38.732;-121.358;2022-08-02T14:22:44;101161.09;;;21.83
49785;BMP280;35679;38.732;-121.358;2022-08-02T14:25:35;101160.72;;;21.79
49785;BMP280;35679;38.732;-121.358;2022-08-02T14:28:25;101165.78;;;21.87
49785;BMP280;35679;38.732;-121.358;2022-08-02T14:31:15;101159.03;;;21.96
49785;BMP280;35679;38.732;-121.358;2022-08-02T14:34:04;101158.47;;;22.06
49785;BMP280;35679;38.732;-121.358;2022-08-02T14:36:55;101151.56;;;22.10
49785;BMP280;35679;38.732;-121.358;2022-08-02T14:39:44;101157.81;;;22.22
49785;BMP280;35679;38.732;-121.358;2022-08-02T14:42:48;101157.09;;;22.26
49785;BMP280;35679;38.732;-121.358;2022-08-02T14:45:39;101154.66;;;22.36
49785;BMP280;35679;38.732;-121.358;2022-08-02T14:48:29;101143.59;;;22.44
49785;BMP280;35679;38.732;-121.358;2022-08-02T14:51:18;101153.28;;;22.56
49785;BMP280;35679;38.732;-121.358;2022-08-02T14:54:09;101156.66;;;22.63
49785;BMP280;35679;38.732;-121.358;2022-08-02T14:57:03;101156.44;;;22.65
49785;BMP280;35679;38.732;-121.358;2022-08-02T14:59:52;101159.22;;;22.81
49785;BMP280;35679;38.732;-121.358;2022-08-02T15:02:41;101150.81;;;22.89
49785;BMP280;35679;38.732;-121.358;2022-08-02T15:05:31;101163.53;;;22.94
49785;BMP280;35679;38.732;-121.358;2022-08-02T15:08:20;101172.69;;;23.04
49785;BMP280;35679;38.732;-121.358;2022-08-02T15:11:09;101163.19;;;23.13
49785;BMP280;35679;38.732;-121.358;2022-08-02T15:13:59;101156.03;;;23.18
49785;BMP280;35679;38.732;-121.358;2022-08-02T15:16:48;101151.81;;;23.22
49785;BMP280;35679;38.732;-121.358;2022-08-02T15:19:45;101153.78;;;23.27
49785;BMP280;35679;38.732;-121.358;2022-08-02T15:22:47;101149.53;;;23.31
49785;BMP280;35679;38.732;-121.358;2022-08-02T15:25:37;101152.59;;;23.34
49785;BMP280;35679;38.732;-121.358;2022-08-02T15:28:29;101148.59;;;23.37
49785;BMP280;35679;38.732;-121.358;2022-08-02T15:31:19;101151.38;;;23.42
49785;BMP280;35679;38.732;-121.358;2022-08-02T15:34:20;101149.28;;;23.44
49785;BMP280;35679;38.732;-121.358;2022-08-02T15:37:09;101138.84;;;23.47
49785;BMP280;35679;38.732;-121.358;2022-08-02T15:39:59;101128.41;;;23.51
49785;BMP280;35679;38.732;-121.358;2022-08-02T15:42:50;101133.56;;;23.52
49785;BMP280;35679;38.732;-121.358;2022-08-02T15:45:40;101143.63;;;23.57
49785;BMP280;35679;38.732;-121.358;2022-08-02T15:48:29;101139.84;;;23.58
49785;BMP280;35679;38.732;-121.358;2022-08-02T15:51:19;101134.00;;;23.61
49785;BMP280;35679;38.732;-121.358;2022-08-02T15:54:08;101144.28;;;23.64
49785;BMP280;35679;38.732;-121.358;2022-08-02T15:56:58;101143.81;;;23.67
49785;BMP280;35679;38.732;-121.358;2022-08-02T15:59:47;101136.91;;;23.71
49785;BMP280;35679;38.732;-121.358;2022-08-02T16:02:36;101137.44;;;23.73